sensor_id;sensor_type;location;lat;lon;timestamp;temperature;humidity
26107;DHT22;13866;50.748;12.630;2023-02-01T00:01:21;3.30;99.90
26107;DHT22;13866;50.748;12.630;2023-02-01T00:03:47;3.20;99.90
26107;DHT22;13866;50.748;12.630;2023-02-01T00:06:12;3.30;99.90
26107;DHT22;13866;50.748;12.630;2023-02-01T00:08:38;3.30;99.90
26107;DHT22;13866;50.748;12.630;2023-02-01T00:11:08;3.30;99.90
26107;DHT22;13866;50.748;12.630;2023-02-01T00:13:36;3.30;99.90
26107;DHT22;13866;50.748;12.630;2023-02-01T00:16:16;3.30;99.90
26107;DHT22;13866;50.748;12.630;2023-02-01T00:18:46;3.40;99.90
26107;DHT22;13866;50.748;12.630;2023-02-01T00:21:17;3.40;99.90
26107;DHT22;13866;50.748;12.630;2023-02-01T00:23:43;3.40;99.90
26107;DHT22;13866;50.748;12.630;2023-02-01T00:26:17;3.40;99.90
26107;DHT22;13866;50.748;12.630;2023-02-01T00:28:43;3.40;99.90
26107;DHT22;13866;50.748;12.630;2023-02-01T00:31:09;3.40;99.90
26107;DHT22;13866;50.748;12.630;2023-02-01T00:33:34;3.40;99.90
26107;DHT22;13866;50.748;12.630;2023-02-01T00:36:05;3.40;99.90
26107;DHT22;13866;50.748;12.630;2023-02-01T00:38:33;3.40;99.90
26107;DHT22;13866;50.748;12.630;2023-02-01T00:41:13;3.30;99.90
26107;DHT22;13866;50.748;12.630;2023-02-01T00:43:39;3.30;99.90
26107;DHT22;13866;50.748;12.630;2023-02-01T00:46:05;3.20;99.90
26107;DHT22;13866;50.748;12.630;2023-02-01T00:48:30;3.20;99.90
26107;DHT22;13866;50.748;12.630;2023-02-01T00:51:05;3.20;99.90
26107;DHT22;13866;50.748;12.630;2023-02-01T00:53:31;3.10;99.90
26107;DHT22;13866;50.748;12.630;2023-02-01T00:55:57;3.10;99.90
26107;DHT22;13866;50.748;12.630;2023-02-01T00:58:23;3.00;99.90
26107;DHT22;13866;50.748;12.630;2023-02-01T01:01:06;3.00;99.90
26107;DHT22;13866;50.748;12.630;2023-02-01T01:03:33;2.90;99.90
26107;DHT22;13866;50.748;12.630;2023-02-01T01:06:00;2.90;99.90
26107;DHT22;13866;50.748;12.630;2023-02-01T01:08:26;3.00;99.90
26107;DHT22;13866;50.748;12.630;2023-02-01T01:10:52;3.10;99.90
26107;DHT22;13866;50.748;12.630;2023-02-01T01:13:17;3.10;99.90
26107;DHT22;13866;50.748;12.630;2023-02-01T01:15:43;3.10;99.90
26107;DHT22;13866;50.748;12.630;2023-02-01T01:18:09;3.10;99.90
26107;DHT22;13866;50.748;12.630;2023-02-01T01:20:36;3.20;99.90
26107;DHT22;13866;50.748;12.630;2023-02-01T01:23:02;3.10;99.90
26107;DHT22;13866;50.748;12.630;2023-02-01T01:25:28;3.10;99.90
26107;DHT22;13866;50.748;12.630;2023-02-01T01:27:53;3.10;99.90
26107;DHT22;13866;50.748;12.630;2023-02-01T01:30:19;3.10;99.90
26107;DHT22;13866;50.748;12.630;2023-02-01T01:32:44;3.10;99.90
26107;DHT22;13866;50.748;12.630;2023-02-01T01:35:10;3.10;99.90
26107;DHT22;13866;50.748;12.630;2023-02-01T01:37:36;3.10;99.90
26107;DHT22;13866;50.748;12.630;2023-02-01T01:40:07;3.10;99.90
26107;DHT22;13866;50.748;12.630;2023-02-01T01:42:41;3.10;99.90
26107;DHT22;13866;50.748;12.630;2023-02-01T01:45:27;3.10;99.90
26107;DHT22;13866;50.748;12.630;2023-02-01T01:48:21;3.20;99.90
26107;DHT22;13866;50.748;12.630;2023-02-01T01:50:54;3.20;99.90
26107;DHT22;13866;50.748;12.630;2023-02-01T01:53:26;3.20;99.90
26107;DHT22;13866;50.748;12.630;2023-02-01T01:55:53;3.20;99.90
26107;DHT22;13866;50.748;12.630;2023-02-01T01:58:22;3.20;99.90
26107;DHT22;13866;50.748;12.630;2023-02-01T02:00:49;3.20;99.90
26107;DHT22;13866;50.748;12.630;2023-02-01T02:03:27;3.30;99.90
26107;DHT22;13866;50.748;12.630;2023-02-01T02:05:57;3.20;99.90
26107;DHT22;13866;50.748;12.630;2023-02-01T02:08:24;3.30;99.90
26107;DHT22;13866;50.748;12.630;2023-02-01T02:10:51;3.20;99.90
26107;DHT22;13866;50.748;12.630;2023-02-01T02:13:35;3.20;99.90
26107;DHT22;13866;50.748;12.630;2023-02-01T02:16:24;3.20;99.90
26107;DHT22;13866;50.748;12.630;2023-02-01T02:19:33;3.20;99.90
26107;DHT22;13866;50.748;12.630;2023-02-01T02:24:58;3.20;99.90
26107;DHT22;13866;50.748;12.630;2023-02-01T02:27:52;3.20;99.90
26107;DHT22;13866;50.748;12.630;2023-02-01T02:31:04;3.20;99.90
26107;DHT22;13866;50.748;12.630;2023-02-01T02:33:41;3.20;99.90
26107;DHT22;13866;50.748;12.630;2023-02-01T02:36:30;3.20;99.90
26107;DHT22;13866;50.748;12.630;2023-02-01T02:39:38;3.20;99.90
26107;DHT22;13866;50.748;12.630;2023-02-01T02:42:21;3.20;99.90
26107;DHT22;13866;50.748;12.630;2023-02-01T02:45:18;3.10;99.90
26107;DHT22;13866;50.748;12.630;2023-02-01T02:50:51;3.10;99.90
26107;DHT22;13866;50.748;12.630;2023-02-01T02:56:41;3.10;99.90
26107;DHT22;13866;50.748;12.630;2023-02-01T02:59:26;3.10;99.90
26107;DHT22;13866;50.748;12.630;2023-02-01T03:02:13;3.10;99.90
26107;DHT22;13866;50.748;12.630;2023-02-01T03:04:57;3.10;99.90
26107;DHT22;13866;50.748;12.630;2023-02-01T03:07:46;3.10;99.90
26107;DHT22;13866;50.748;12.630;2023-02-01T03:13:16;3.10;99.90
26107;DHT22;13866;50.748;12.630;2023-02-01T03:15:56;3.10;99.90
26107;DHT22;13866;50.748;12.630;2023-02-01T03:20:55;3.00;99.90
26107;DHT22;13866;50.748;12.630;2023-02-01T03:23:24;3.00;99.90
26107;DHT22;13866;50.748;12.630;2023-02-01T03:25:53;3.00;99.90
26107;DHT22;13866;50.748;12.630;2023-02-01T03:28:20;2.90;99.90
26107;DHT22;13866;50.748;12.630;2023-02-01T03:30:48;3.00;99.90
26107;DHT22;13866;50.748;12.630;2023-02-01T03:33:19;2.90;99.90
26107;DHT22;13866;50.748;12.630;2023-02-01T03:36:05;2.80;99.90
26107;DHT22;13866;50.748;12.630;2023-02-01T03:38:50;2.80;99.90
26107;DHT22;13866;50.748;12.630;2023-02-01T03:41:33;2.80;99.90
26107;DHT22;13866;50.748;12.630;2023-02-01T03:44:16;2.80;99.90
26107;DHT22;13866;50.748;12.630;2023-02-01T03:47:08;2.70;99.90
26107;DHT22;13866;50.748;12.630;2023-02-01T03:49:41;2.70;99.90
26107;DHT22;13866;50.748;12.630;2023-02-01T03:52:12;2.70;99.90
26107;DHT22;13866;50.748;12.630;2023-02-01T03:54:39;2.80;99.90
26107;DHT22;13866;50.748;12.630;2023-02-01T03:57:09;2.80;99.90
26107;DHT22;13866;50.748;12.630;2023-02-01T03:59:40;2.80;99.90
26107;DHT22;13866;50.748;12.630;2023-02-01T04:02:06;2.90;99.90
26107;DHT22;13866;50.748;12.630;2023-02-01T04:04:33;2.80;99.90
26107;DHT22;13866;50.748;12.630;2023-02-01T04:06:59;2.80;99.90
26107;DHT22;13866;50.748;12.630;2023-02-01T04:09:24;2.80;99.90
26107;DHT22;13866;50.748;12.630;2023-02-01T04:11:50;2.80;99.90
26107;DHT22;13866;50.748;12.630;2023-02-01T04:14:15;2.90;99.90
26107;DHT22;13866;50.748;12.630;2023-02-01T04:16:41;2.80;99.90
26107;DHT22;13866;50.748;12.630;2023-02-01T04:19:06;2.80;99.90
26107;DHT22;13866;50.748;12.630;2023-02-01T04:21:32;2.80;99.90
26107;DHT22;13866;50.748;12.630;2023-02-01T04:23:57;2.80;99.90
26107;DHT22;13866;50.748;12.630;2023-02-01T04:26:23;2.90;99.90
26107;DHT22;13866;50.748;12.630;2023-02-01T04:28:48;2.80;99.90
26107;DHT22;13866;50.748;12.630;2023-02-01T04:31:15;2.80;99.90
26107;DHT22;13866;50.748;12.630;2023-02-01T04:33:40;2.80;99.90
26107;DHT22;13866;50.748;12.630;2023-02-01T04:36:06;2.80;99.90
26107;DHT22;13866;50.748;12.630;2023-02-01T04:38:32;2.80;99.90
26107;DHT22;13866;50.748;12.630;2023-02-01T04:40:58;2.80;99.90
26107;DHT22;13866;50.748;12.630;2023-02-01T04:43:23;2.90;99.90
26107;DHT22;13866;50.748;12.630;2023-02-01T04:45:49;2.90;99.90
26107;DHT22;13866;50.748;12.630;2023-02-01T04:48:16;2.90;99.90
26107;DHT22;13866;50.748;12.630;2023-02-01T04:50:43;2.90;99.90
26107;DHT22;13866;50.748;12.630;2023-02-01T04:53:10;2.90;99.90
26107;DHT22;13866;50.748;12.630;2023-02-01T04:55:35;2.90;99.90
26107;DHT22;13866;50.748;12.630;2023-02-01T04:58:01;3.00;99.90
26107;DHT22;13866;50.748;12.630;2023-02-01T05:00:26;2.90;99.90
26107;DHT22;13866;50.748;12.630;2023-02-01T05:02:52;2.90;99.90
26107;DHT22;13866;50.748;12.630;2023-02-01T05:05:17;2.90;99.90
26107;DHT22;13866;50.748;12.630;2023-02-01T05:07:43;2.90;99.90
26107;DHT22;13866;50.748;12.630;2023-02-01T05:10:08;2.90;99.90
26107;DHT22;13866;50.748;12.630;2023-02-01T05:12:34;2.90;99.90
26107;DHT22;13866;50.748;12.630;2023-02-01T05:15:18;3.00;99.90
26107;DHT22;13866;50.748;12.630;2023-02-01T05:17:44;3.00;99.90
26107;DHT22;13866;50.748;12.630;2023-02-01T05:20:09;3.00;99.90
26107;DHT22;13866;50.748;12.630;2023-02-01T05:22:35;2.90;99.90
26107;DHT22;13866;50.748;12.630;2023-02-01T05:25:01;2.90;99.90
26107;DHT22;13866;50.748;12.630;2023-02-01T05:27:29;2.90;99.90
26107;DHT22;13866;50.748;12.630;2023-02-01T05:29:54;2.90;99.90
26107;DHT22;13866;50.748;12.630;2023-02-01T05:32:20;2.80;99.90
26107;DHT22;13866;50.748;12.630;2023-02-01T05:34:45;2.80;99.90
26107;DHT22;13866;50.748;12.630;2023-02-01T05:37:11;2.80;99.90
26107;DHT22;13866;50.748;12.630;2023-02-01T05:39:36;2.80;99.90
26107;DHT22;13866;50.748;12.630;2023-02-01T05:42:02;2.70;99.90
26107;DHT22;13866;50.748;12.630;2023-02-01T05:44:27;2.60;99.90
26107;DHT22;13866;50.748;12.630;2023-02-01T05:46:52;2.60;99.90
26107;DHT22;13866;50.748;12.630;2023-02-01T05:49:18;2.60;99.90
26107;DHT22;13866;50.748;12.630;2023-02-01T05:51:43;2.50;99.90
26107;DHT22;13866;50.748;12.630;2023-02-01T05:54:09;2.50;99.90
26107;DHT22;13866;50.748;12.630;2023-02-01T05:56:35;2.50;99.90
26107;DHT22;13866;50.748;12.630;2023-02-01T05:59:00;2.50;99.90
26107;DHT22;13866;50.748;12.630;2023-02-01T06:01:26;2.60;99.90
26107;DHT22;13866;50.748;12.630;2023-02-01T06:03:51;2.50;99.90
26107;DHT22;13866;50.748;12.630;2023-02-01T06:06:17;2.50;99.90
26107;DHT22;13866;50.748;12.630;2023-02-01T06:08:44;2.50;99.90
26107;DHT22;13866;50.748;12.630;2023-02-01T06:11:09;2.40;99.90
26107;DHT22;13866;50.748;12.630;2023-02-01T06:13:35;2.40;99.90
26107;DHT22;13866;50.748;12.630;2023-02-01T06:16:01;2.40;99.90
26107;DHT22;13866;50.748;12.630;2023-02-01T06:18:28;2.40;99.90
26107;DHT22;13866;50.748;12.630;2023-02-01T06:20:55;2.40;99.90
26107;DHT22;13866;50.748;12.630;2023-02-01T06:23:21;2.40;99.90
26107;DHT22;13866;50.748;12.630;2023-02-01T06:25:52;2.30;99.90
26107;DHT22;13866;50.748;12.630;2023-02-01T06:28:18;2.30;99.90
26107;DHT22;13866;50.748;12.630;2023-02-01T06:30:43;2.40;99.90
26107;DHT22;13866;50.748;12.630;2023-02-01T06:33:12;2.40;99.90
26107;DHT22;13866;50.748;12.630;2023-02-01T06:35:41;2.40;99.90
26107;DHT22;13866;50.748;12.630;2023-02-01T06:38:07;2.40;99.90
26107;DHT22;13866;50.748;12.630;2023-02-01T06:40:33;2.50;99.90
26107;DHT22;13866;50.748;12.630;2023-02-01T06:42:58;2.50;99.90
26107;DHT22;13866;50.748;12.630;2023-02-01T06:45:24;2.60;99.90
26107;DHT22;13866;50.748;12.630;2023-02-01T06:47:49;2.50;99.90
26107;DHT22;13866;50.748;12.630;2023-02-01T06:50:15;2.60;99.90
26107;DHT22;13866;50.748;12.630;2023-02-01T06:52:41;2.60;99.90
26107;DHT22;13866;50.748;12.630;2023-02-01T06:55:06;2.60;99.90
26107;DHT22;13866;50.748;12.630;2023-02-01T06:57:32;2.60;99.90
26107;DHT22;13866;50.748;12.630;2023-02-01T06:59:59;2.70;99.90
26107;DHT22;13866;50.748;12.630;2023-02-01T07:02:25;2.60;99.90
26107;DHT22;13866;50.748;12.630;2023-02-01T07:04:50;2.60;99.90
26107;DHT22;13866;50.748;12.630;2023-02-01T07:07:16;2.70;99.90
26107;DHT22;13866;50.748;12.630;2023-02-01T07:09:42;2.70;99.90
26107;DHT22;13866;50.748;12.630;2023-02-01T07:12:07;2.70;99.90
26107;DHT22;13866;50.748;12.630;2023-02-01T07:14:33;2.70;99.90
26107;DHT22;13866;50.748;12.630;2023-02-01T07:16:58;2.70;99.90
26107;DHT22;13866;50.748;12.630;2023-02-01T07:19:24;2.80;99.90
26107;DHT22;13866;50.748;12.630;2023-02-01T07:21:49;2.80;99.90
26107;DHT22;13866;50.748;12.630;2023-02-01T07:24:15;2.80;99.90
26107;DHT22;13866;50.748;12.630;2023-02-01T07:26:40;2.80;99.90
26107;DHT22;13866;50.748;12.630;2023-02-01T07:29:05;2.80;99.90
26107;DHT22;13866;50.748;12.630;2023-02-01T07:31:31;2.90;99.90
26107;DHT22;13866;50.748;12.630;2023-02-01T07:33:56;2.90;99.90
26107;DHT22;13866;50.748;12.630;2023-02-01T07:36:23;2.90;99.90
26107;DHT22;13866;50.748;12.630;2023-02-01T07:38:49;2.90;99.90
26107;DHT22;13866;50.748;12.630;2023-02-01T07:41:16;3.00;99.90
26107;DHT22;13866;50.748;12.630;2023-02-01T07:43:42;3.00;99.90
26107;DHT22;13866;50.748;12.630;2023-02-01T07:46:09;3.00;99.90
26107;DHT22;13866;50.748;12.630;2023-02-01T07:48:58;3.00;99.90
26107;DHT22;13866;50.748;12.630;2023-02-01T07:51:34;3.00;99.90
26107;DHT22;13866;50.748;12.630;2023-02-01T07:54:00;3.10;99.90
26107;DHT22;13866;50.748;12.630;2023-02-01T07:56:37;3.10;99.90
26107;DHT22;13866;50.748;12.630;2023-02-01T07:59:42;3.20;99.90
26107;DHT22;13866;50.748;12.630;2023-02-01T08:03:12;3.20;99.90
26107;DHT22;13866;50.748;12.630;2023-02-01T08:05:39;3.20;99.90
26107;DHT22;13866;50.748;12.630;2023-02-01T08:08:05;3.20;99.90
26107;DHT22;13866;50.748;12.630;2023-02-01T08:10:31;3.30;99.90
26107;DHT22;13866;50.748;12.630;2023-02-01T08:13:01;3.30;99.90
26107;DHT22;13866;50.748;12.630;2023-02-01T08:15:31;3.30;99.90
26107;DHT22;13866;50.748;12.630;2023-02-01T08:17:56;3.40;99.90
26107;DHT22;13866;50.748;12.630;2023-02-01T08:20:25;3.40;99.90
26107;DHT22;13866;50.748;12.630;2023-02-01T08:22:56;3.40;99.90
26107;DHT22;13866;50.748;12.630;2023-02-01T08:25:23;3.40;99.90
26107;DHT22;13866;50.748;12.630;2023-02-01T08:27:49;3.40;99.90
26107;DHT22;13866;50.748;12.630;2023-02-01T08:30:38;3.40;99.90
26107;DHT22;13866;50.748;12.630;2023-02-01T08:33:05;3.40;99.90
26107;DHT22;13866;50.748;12.630;2023-02-01T08:35:35;3.40;99.90
26107;DHT22;13866;50.748;12.630;2023-02-01T08:38:01;3.50;99.90
26107;DHT22;13866;50.748;12.630;2023-02-01T08:40:26;3.40;99.90
26107;DHT22;13866;50.748;12.630;2023-02-01T08:42:54;3.30;99.90
26107;DHT22;13866;50.748;12.630;2023-02-01T08:45:27;3.20;99.90
26107;DHT22;13866;50.748;12.630;2023-02-01T08:47:54;3.20;99.90
26107;DHT22;13866;50.748;12.630;2023-02-01T08:50:20;3.10;99.90
26107;DHT22;13866;50.748;12.630;2023-02-01T08:52:46;3.10;99.90
26107;DHT22;13866;50.748;12.630;2023-02-01T08:55:12;3.00;99.90
26107;DHT22;13866;50.748;12.630;2023-02-01T08:57:38;2.90;99.90
26107;DHT22;13866;50.748;12.630;2023-02-01T09:00:06;2.80;99.90
26107;DHT22;13866;50.748;12.630;2023-02-01T09:02:32;2.90;99.90
26107;DHT22;13866;50.748;12.630;2023-02-01T09:04:58;2.80;99.90
26107;DHT22;13866;50.748;12.630;2023-02-01T09:07:23;2.90;99.90
26107;DHT22;13866;50.748;12.630;2023-02-01T09:09:49;2.90;99.90
26107;DHT22;13866;50.748;12.630;2023-02-01T09:12:14;3.00;99.90
26107;DHT22;13866;50.748;12.630;2023-02-01T09:14:40;3.10;99.90
26107;DHT22;13866;50.748;12.630;2023-02-01T09:17:05;3.20;99.90
26107;DHT22;13866;50.748;12.630;2023-02-01T09:19:32;3.30;99.90
26107;DHT22;13866;50.748;12.630;2023-02-01T09:21:57;3.40;99.90
26107;DHT22;13866;50.748;12.630;2023-02-01T09:24:23;3.40;99.90
26107;DHT22;13866;50.748;12.630;2023-02-01T09:26:48;3.50;99.90
26107;DHT22;13866;50.748;12.630;2023-02-01T09:29:14;3.50;99.90
26107;DHT22;13866;50.748;12.630;2023-02-01T09:31:40;3.60;99.90
26107;DHT22;13866;50.748;12.630;2023-02-01T09:34:06;3.60;99.90
26107;DHT22;13866;50.748;12.630;2023-02-01T09:36:33;3.60;99.90
26107;DHT22;13866;50.748;12.630;2023-02-01T09:38:59;3.70;99.90
26107;DHT22;13866;50.748;12.630;2023-02-01T09:47:01;3.80;99.90
26107;DHT22;13866;50.748;12.630;2023-02-01T09:49:32;3.90;99.90
26107;DHT22;13866;50.748;12.630;2023-02-01T09:52:01;4.00;99.90
26107;DHT22;13866;50.748;12.630;2023-02-01T09:54:35;4.00;99.90
26107;DHT22;13866;50.748;12.630;2023-02-01T09:57:24;4.00;99.90
26107;DHT22;13866;50.748;12.630;2023-02-01T09:59:56;4.00;99.90
26107;DHT22;13866;50.748;12.630;2023-02-01T10:02:26;3.90;99.90
26107;DHT22;13866;50.748;12.630;2023-02-01T10:04:58;3.90;99.90
26107;DHT22;13866;50.748;12.630;2023-02-01T10:07:46;3.80;99.90
26107;DHT22;13866;50.748;12.630;2023-02-01T10:10:23;3.80;99.90
26107;DHT22;13866;50.748;12.630;2023-02-01T10:15:59;3.80;99.90
26107;DHT22;13866;50.748;12.630;2023-02-01T10:18:57;3.80;99.90
26107;DHT22;13866;50.748;12.630;2023-02-01T10:21:47;3.80;99.90
26107;DHT22;13866;50.748;12.630;2023-02-01T10:26:57;3.80;99.90
26107;DHT22;13866;50.748;12.630;2023-02-01T10:29:31;3.90;99.90
26107;DHT22;13866;50.748;12.630;2023-02-01T10:31:58;4.00;99.90
26107;DHT22;13866;50.748;12.630;2023-02-01T10:34:27;4.00;99.90
26107;DHT22;13866;50.748;12.630;2023-02-01T10:39:24;4.20;99.90
26107;DHT22;13866;50.748;12.630;2023-02-01T10:41:50;4.20;99.90
26107;DHT22;13866;50.748;12.630;2023-02-01T10:44:24;4.20;99.90
26107;DHT22;13866;50.748;12.630;2023-02-01T10:46:50;4.20;99.90
26107;DHT22;13866;50.748;12.630;2023-02-01T10:49:33;4.20;99.90
26107;DHT22;13866;50.748;12.630;2023-02-01T10:52:25;4.20;99.90
26107;DHT22;13866;50.748;12.630;2023-02-01T10:54:54;4.20;99.90
26107;DHT22;13866;50.748;12.630;2023-02-01T10:57:23;4.20;99.90
26107;DHT22;13866;50.748;12.630;2023-02-01T10:59:51;4.10;99.90
26107;DHT22;13866;50.748;12.630;2023-02-01T11:02:35;4.10;99.90
26107;DHT22;13866;50.748;12.630;2023-02-01T11:05:09;4.10;99.90
26107;DHT22;13866;50.748;12.630;2023-02-01T11:07:36;4.10;99.90
26107;DHT22;13866;50.748;12.630;2023-02-01T11:10:02;4.20;99.90
26107;DHT22;13866;50.748;12.630;2023-02-01T11:12:34;4.20;99.90
26107;DHT22;13866;50.748;12.630;2023-02-01T11:15:20;4.20;99.90
26107;DHT22;13866;50.748;12.630;2023-02-01T11:17:48;4.30;99.90
26107;DHT22;13866;50.748;12.630;2023-02-01T11:22:57;4.30;99.90
26107;DHT22;13866;50.748;12.630;2023-02-01T11:25:24;4.40;99.90
26107;DHT22;13866;50.748;12.630;2023-02-01T11:27:51;4.40;99.90
26107;DHT22;13866;50.748;12.630;2023-02-01T11:30:27;4.50;99.90
26107;DHT22;13866;50.748;12.630;2023-02-01T11:32:56;4.50;99.90
26107;DHT22;13866;50.748;12.630;2023-02-01T11:35:22;4.50;99.90
26107;DHT22;13866;50.748;12.630;2023-02-01T11:37:56;4.50;99.90
26107;DHT22;13866;50.748;12.630;2023-02-01T11:40:50;4.60;99.90
26107;DHT22;13866;50.748;12.630;2023-02-01T11:43:26;4.60;99.90
26107;DHT22;13866;50.748;12.630;2023-02-01T11:45:59;4.70;99.90
26107;DHT22;13866;50.748;12.630;2023-02-01T11:48:27;4.70;99.90
26107;DHT22;13866;50.748;12.630;2023-02-01T11:57:10;4.70;99.90
26107;DHT22;13866;50.748;12.630;2023-02-01T12:05:32;4.70;99.90
26107;DHT22;13866;50.748;12.630;2023-02-01T12:10:56;4.80;99.90
26107;DHT22;13866;50.748;12.630;2023-02-01T12:13:47;4.80;99.90
26107;DHT22;13866;50.748;12.630;2023-02-01T12:16:44;4.80;99.90
26107;DHT22;13866;50.748;12.630;2023-02-01T12:19:39;4.80;99.90
26107;DHT22;13866;50.748;12.630;2023-02-01T12:22:28;4.80;99.90
26107;DHT22;13866;50.748;12.630;2023-02-01T12:25:39;4.80;99.90
26107;DHT22;13866;50.748;12.630;2023-02-01T12:28:56;4.80;99.90
26107;DHT22;13866;50.748;12.630;2023-02-01T12:34:48;4.80;99.90
26107;DHT22;13866;50.748;12.630;2023-02-01T12:37:47;4.80;99.90
26107;DHT22;13866;50.748;12.630;2023-02-01T12:43:12;4.90;99.90
26107;DHT22;13866;50.748;12.630;2023-02-01T12:45:58;5.00;99.90
26107;DHT22;13866;50.748;12.630;2023-02-01T12:48:35;5.00;99.90
26107;DHT22;13866;50.748;12.630;2023-02-01T12:51:21;4.90;99.90
26107;DHT22;13866;50.748;12.630;2023-02-01T12:53:55;4.90;99.90
26107;DHT22;13866;50.748;12.630;2023-02-01T12:56:26;5.00;99.90
26107;DHT22;13866;50.748;12.630;2023-02-01T12:58:55;5.00;99.90
26107;DHT22;13866;50.748;12.630;2023-02-01T13:01:49;5.00;99.90
26107;DHT22;13866;50.748;12.630;2023-02-01T13:04:46;5.00;99.90
26107;DHT22;13866;50.748;12.630;2023-02-01T13:07:22;4.90;99.90
26107;DHT22;13866;50.748;12.630;2023-02-01T13:09:57;4.90;99.90
26107;DHT22;13866;50.748;12.630;2023-02-01T13:12:30;4.90;99.90
26107;DHT22;13866;50.748;12.630;2023-02-01T13:15:17;4.90;99.90
26107;DHT22;13866;50.748;12.630;2023-02-01T13:17:44;5.00;99.90
26107;DHT22;13866;50.748;12.630;2023-02-01T13:23:04;5.00;99.90
26107;DHT22;13866;50.748;12.630;2023-02-01T13:25:49;5.00;99.90
26107;DHT22;13866;50.748;12.630;2023-02-01T13:31:29;4.90;99.90
26107;DHT22;13866;50.748;12.630;2023-02-01T13:34:39;4.90;99.90
26107;DHT22;13866;50.748;12.630;2023-02-01T13:42:33;4.80;99.90
26107;DHT22;13866;50.748;12.630;2023-02-01T13:45:03;4.80;99.90
26107;DHT22;13866;50.748;12.630;2023-02-01T13:47:38;4.80;99.90
26107;DHT22;13866;50.748;12.630;2023-02-01T13:52:44;4.70;99.90
26107;DHT22;13866;50.748;12.630;2023-02-01T13:57:40;4.70;99.90
26107;DHT22;13866;50.748;12.630;2023-02-01T14:05:54;4.60;99.90
26107;DHT22;13866;50.748;12.630;2023-02-01T14:10:51;4.60;99.90
26107;DHT22;13866;50.748;12.630;2023-02-01T14:13:28;4.60;99.90
26107;DHT22;13866;50.748;12.630;2023-02-01T14:23:42;4.50;99.90
26107;DHT22;13866;50.748;12.630;2023-02-01T14:26:12;4.40;99.90
26107;DHT22;13866;50.748;12.630;2023-02-01T14:28:58;4.40;99.90
26107;DHT22;13866;50.748;12.630;2023-02-01T14:31:34;4.40;99.90
26107;DHT22;13866;50.748;12.630;2023-02-01T14:34:13;4.40;99.90
26107;DHT22;13866;50.748;12.630;2023-02-01T14:39:24;4.40;99.90
26107;DHT22;13866;50.748;12.630;2023-02-01T14:41:54;4.40;99.90
26107;DHT22;13866;50.748;12.630;2023-02-01T14:44:26;4.30;99.90
26107;DHT22;13866;50.748;12.630;2023-02-01T14:50:02;4.30;99.90
26107;DHT22;13866;50.748;12.630;2023-02-01T14:52:39;4.30;99.90
26107;DHT22;13866;50.748;12.630;2023-02-01T14:55:15;4.30;99.90
26107;DHT22;13866;50.748;12.630;2023-02-01T14:57:43;4.30;99.90
26107;DHT22;13866;50.748;12.630;2023-02-01T15:00:26;4.30;99.90
26107;DHT22;13866;50.748;12.630;2023-02-01T15:02:53;4.20;99.90
26107;DHT22;13866;50.748;12.630;2023-02-01T15:05:24;4.30;99.90
26107;DHT22;13866;50.748;12.630;2023-02-01T15:07:51;4.30;99.90
26107;DHT22;13866;50.748;12.630;2023-02-01T15:10:17;4.20;99.90
26107;DHT22;13866;50.748;12.630;2023-02-01T15:12:45;4.20;99.90
26107;DHT22;13866;50.748;12.630;2023-02-01T15:15:22;4.20;99.90
26107;DHT22;13866;50.748;12.630;2023-02-01T15:17:54;4.20;99.90
26107;DHT22;13866;50.748;12.630;2023-02-01T15:20:23;4.30;99.90
26107;DHT22;13866;50.748;12.630;2023-02-01T15:25:20;4.30;99.90
26107;DHT22;13866;50.748;12.630;2023-02-01T15:27:46;4.20;99.90
26107;DHT22;13866;50.748;12.630;2023-02-01T15:30:19;4.20;99.90
26107;DHT22;13866;50.748;12.630;2023-02-01T15:32:45;4.20;99.90
26107;DHT22;13866;50.748;12.630;2023-02-01T15:35:38;4.20;99.90
26107;DHT22;13866;50.748;12.630;2023-02-01T15:43:43;4.30;99.90
26107;DHT22;13866;50.748;12.630;2023-02-01T15:46:14;4.20;99.90
26107;DHT22;13866;50.748;12.630;2023-02-01T15:48:48;4.20;99.90
26107;DHT22;13866;50.748;12.630;2023-02-01T15:51:21;4.20;99.90
26107;DHT22;13866;50.748;12.630;2023-02-01T15:53:56;4.30;99.90
26107;DHT22;13866;50.748;12.630;2023-02-01T15:56:28;4.20;99.90
26107;DHT22;13866;50.748;12.630;2023-02-01T15:58:58;4.20;99.90
26107;DHT22;13866;50.748;12.630;2023-02-01T16:01:24;4.30;99.90
26107;DHT22;13866;50.748;12.630;2023-02-01T16:07:02;4.30;99.90
26107;DHT22;13866;50.748;12.630;2023-02-01T16:09:39;4.30;99.90
26107;DHT22;13866;50.748;12.630;2023-02-01T16:14:57;4.20;99.90
26107;DHT22;13866;50.748;12.630;2023-02-01T16:17:23;4.20;99.90
26107;DHT22;13866;50.748;12.630;2023-02-01T16:19:48;4.20;99.90
26107;DHT22;13866;50.748;12.630;2023-02-01T16:22:13;4.30;99.90
26107;DHT22;13866;50.748;12.630;2023-02-01T16:24:39;4.30;99.90
26107;DHT22;13866;50.748;12.630;2023-02-01T16:27:04;4.20;99.90
26107;DHT22;13866;50.748;12.630;2023-02-01T16:29:32;4.20;99.90
26107;DHT22;13866;50.748;12.630;2023-02-01T16:31:58;4.20;99.90
26107;DHT22;13866;50.748;12.630;2023-02-01T16:34:23;4.20;99.90
26107;DHT22;13866;50.748;12.630;2023-02-01T16:36:49;4.20;99.90
26107;DHT22;13866;50.748;12.630;2023-02-01T16:39:21;4.10;99.90
26107;DHT22;13866;50.748;12.630;2023-02-01T16:41:47;4.10;99.90
26107;DHT22;13866;50.748;12.630;2023-02-01T16:44:12;4.10;99.90
26107;DHT22;13866;50.748;12.630;2023-02-01T16:46:40;4.00;99.90
26107;DHT22;13866;50.748;12.630;2023-02-01T16:51:42;3.90;99.90
26107;DHT22;13866;50.748;12.630;2023-02-01T16:54:08;3.90;99.90
26107;DHT22;13866;50.748;12.630;2023-02-01T16:56:34;3.90;99.90
26107;DHT22;13866;50.748;12.630;2023-02-01T16:59:01;3.90;99.90
26107;DHT22;13866;50.748;12.630;2023-02-01T17:01:26;3.90;99.90
26107;DHT22;13866;50.748;12.630;2023-02-01T17:03:52;3.90;99.90
26107;DHT22;13866;50.748;12.630;2023-02-01T17:06:23;4.00;99.90
26107;DHT22;13866;50.748;12.630;2023-02-01T17:08:55;4.00;99.90
26107;DHT22;13866;50.748;12.630;2023-02-01T17:11:23;4.00;99.90
26107;DHT22;13866;50.748;12.630;2023-02-01T17:13:50;4.00;99.90
26107;DHT22;13866;50.748;12.630;2023-02-01T17:18:52;3.70;99.90
26107;DHT22;13866;50.748;12.630;2023-02-01T17:21:18;3.60;99.90
26107;DHT22;13866;50.748;12.630;2023-02-01T17:23:43;2.70;99.90
26107;DHT22;13866;50.748;12.630;2023-02-01T17:26:10;1.80;99.90
26107;DHT22;13866;50.748;12.630;2023-02-01T17:28:36;1.40;99.90
26107;DHT22;13866;50.748;12.630;2023-02-01T17:31:02;0.90;99.90
26107;DHT22;13866;50.748;12.630;2023-02-01T17:33:34;0.70;99.90
26107;DHT22;13866;50.748;12.630;2023-02-01T17:36:01;0.60;99.90
26107;DHT22;13866;50.748;12.630;2023-02-01T17:38:27;0.70;99.90
26107;DHT22;13866;50.748;12.630;2023-02-01T17:40:53;0.70;99.90
26107;DHT22;13866;50.748;12.630;2023-02-01T17:43:24;0.80;99.90
26107;DHT22;13866;50.748;12.630;2023-02-01T17:45:52;0.80;99.90